Buffalo (BUF/KBUF)

Information

Location
Buffalo, NY
Local Time
18:36 / 6:36 pm
GMT Time
22:36 / 10:36 pm
Gates
No FAA reported delays
METAR KBUF 242154Z 27007KT 10SM -RA SCT027 BKN037 OVC060 22/16 A2983 RMK AO2 RAB40 SLP097 P0000 T02170161
TAF KBUF 242125Z 2421/2518 24012KT P6SM VCSH BKN035 FM242200 29009KT P6SM OVC030 FM250000 31008KT P6SM OVC015 FM250900 31006KT P6SM OVC007 FM251300 35008KT P6SM OVC007 FM251500 36008KT P6SM OVC012